createdAt,value
2018-09-21T04:00:31.598Z,90.53
2018-09-21T04:01:31.527Z,90.84
2018-09-21T04:02:31.535Z,90.64
2018-09-21T04:03:31.520Z,90.44
2018-09-21T04:04:31.489Z,90.44
2018-09-21T04:05:31.486Z,91.55
2018-09-21T04:06:31.470Z,91.86
2018-09-21T04:07:31.462Z,91.86
2018-09-21T04:08:31.451Z,91.45
2018-09-21T04:09:31.436Z,91.05
2018-09-21T04:10:31.432Z,91.05
2018-09-21T04:11:31.412Z,91.35
2018-09-21T04:12:31.402Z,92.42
2018-09-21T04:13:31.391Z,92.12
2018-09-21T04:14:31.379Z,91.30
2018-09-21T04:15:31.376Z,91.41
2018-09-21T04:16:31.357Z,91.82
2018-09-21T04:17:31.355Z,91.30
2018-09-21T04:18:31.334Z,92.48
2018-09-21T04:19:31.319Z,92.58
2018-09-21T04:20:31.323Z,91.77
2018-09-21T04:21:31.300Z,91.26
2018-09-21T04:22:31.290Z,91.36
2018-09-21T04:23:31.277Z,91.56
2018-09-21T04:24:31.266Z,91.56
2018-09-21T04:25:31.266Z,91.26
2018-09-21T04:26:31.260Z,90.92
2018-09-21T04:27:31.236Z,91.63
2018-09-21T04:28:31.216Z,91.52
2018-09-21T04:29:31.210Z,91.63
2018-09-21T04:30:31.206Z,91.83
2018-09-21T04:31:31.187Z,90.71
2018-09-21T04:32:31.175Z,90.71
2018-09-21T04:33:31.164Z,91.52
2018-09-21T04:34:31.177Z,91.32
2018-09-21T04:35:31.150Z,91.63
2018-09-21T04:36:31.130Z,90.77
2018-09-21T04:37:31.123Z,90.67
2018-09-21T04:38:31.104Z,90.36
2018-09-21T04:39:31.097Z,90.16
2018-09-21T04:40:31.093Z,90.77
2018-09-21T04:41:31.069Z,90.88
2018-09-21T04:42:31.051Z,90.77
2018-09-21T04:43:31.052Z,89.15
2018-09-21T04:44:31.040Z,89.15
2018-09-21T04:45:31.042Z,89.35
2018-09-21T04:46:31.017Z,89.92
2018-09-21T04:47:31.006Z,89.72
2018-09-21T04:48:31.024Z,90.32
2018-09-21T04:49:30.984Z,90.22
2018-09-21T04:50:30.981Z,90.32
2018-09-21T04:51:30.961Z,89.81
2018-09-21T04:52:30.971Z,89.57
2018-09-21T04:53:30.988Z,89.81
2018-09-21T04:54:30.929Z,89.37
2018-09-21T04:55:30.923Z,88.66
2018-09-21T04:56:30.904Z,89.37
2018-09-21T04:57:30.894Z,89.26
2018-09-21T04:58:30.877Z,88.86
2018-09-21T04:59:30.866Z,88.86
2018-09-21T05:00:30.867Z,89.26
2018-09-21T05:01:30.847Z,88.72
2018-09-21T05:02:30.836Z,88.42
2018-09-21T05:03:30.822Z,88.42
2018-09-21T05:04:30.854Z,88.21
2018-09-21T05:05:30.814Z,87.87
2018-09-21T05:06:30.788Z,87.36
2018-09-21T05:07:30.780Z,87.36
2018-09-21T05:08:30.765Z,86.21
2018-09-21T05:09:30.757Z,85.50
2018-09-21T05:10:30.754Z,85.10
2018-09-21T05:11:30.736Z,84.85
2018-09-21T05:12:30.736Z,84.95
2018-09-21T05:13:30.714Z,84.75
2018-09-21T05:14:30.701Z,84.45
2018-09-21T05:15:30.702Z,84.14
2018-09-21T05:16:30.674Z,84.85
2018-09-21T05:17:30.663Z,84.34
2018-09-21T05:18:30.652Z,84.75
2018-09-21T05:19:30.645Z,84.85
2018-09-21T05:20:30.642Z,84.65
2018-09-21T05:21:30.618Z,85.86
2018-09-21T05:22:30.611Z,85.25
2018-09-21T05:23:30.604Z,85.30
2018-09-21T05:24:30.589Z,84.45
2018-09-21T05:25:30.609Z,85.46
2018-09-21T05:26:30.569Z,85.46
2018-09-21T05:27:30.622Z,84.85
2018-09-21T05:28:30.547Z,84.51
2018-09-21T05:29:30.528Z,84.81
2018-09-21T05:30:30.525Z,84.81
2018-09-21T05:31:30.524Z,84.71
2018-09-21T05:32:30.499Z,84.41
2018-09-21T05:33:30.487Z,84.71
2018-09-21T05:34:30.494Z,84.41
2018-09-21T05:35:30.467Z,84.57
2018-09-21T05:36:30.505Z,83.76
2018-09-21T05:37:30.441Z,83.86
2018-09-21T05:38:30.430Z,84.37
2018-09-21T05:39:30.419Z,84.12
2018-09-21T05:40:30.408Z,83.86
2018-09-21T05:41:30.400Z,84.12
2018-09-21T05:42:30.385Z,84.37
2018-09-21T05:43:30.370Z,84.23
2018-09-21T05:44:30.382Z,83.92
2018-09-21T05:45:30.351Z,83.82
2018-09-21T05:46:30.355Z,84.03
2018-09-21T05:47:30.328Z,82.81
2018-09-21T05:48:30.313Z,83.82
2018-09-21T05:49:30.313Z,83.92
2018-09-21T05:50:30.296Z,83.48
2018-09-21T05:51:30.307Z,83.48
2018-09-21T05:52:30.274Z,83.48
2018-09-21T05:53:30.261Z,81.87
2018-09-21T05:54:30.246Z,82.47
2018-09-21T05:55:30.242Z,82.07
2018-09-21T05:56:30.255Z,82.33
2018-09-21T05:57:30.212Z,80.41
2018-09-21T05:58:30.204Z,81.12
2018-09-21T05:59:30.194Z,81.08
2018-09-21T06:00:30.181Z,81.99
2018-09-21T06:01:30.182Z,81.08
2018-09-21T06:02:30.221Z,80.98
2018-09-21T06:03:30.148Z,79.87
2018-09-21T06:04:30.137Z,80.88
2018-09-21T06:05:30.113Z,80.13
2018-09-21T06:06:30.126Z,79.13
2018-09-21T06:07:30.103Z,79.43
2018-09-21T06:08:30.087Z,78.99
2018-09-21T06:09:30.078Z,77.98
2018-09-21T06:10:30.071Z,77.24
2018-09-21T06:11:30.075Z,77.84
2018-09-21T06:12:30.059Z,77.61
2018-09-21T06:13:30.084Z,78.51
2018-09-21T06:14:30.025Z,77.81
2018-09-21T06:15:30.016Z,78.61
2018-09-21T06:16:30.116Z,78.51
2018-09-21T06:17:29.990Z,77.91
2018-09-21T06:18:29.979Z,78.51
2018-09-21T06:19:30.098Z,79.11
2018-09-21T06:20:29.960Z,78.51
2018-09-21T06:21:29.958Z,79.52
2018-09-21T06:22:29.981Z,79.32
2018-09-21T06:23:29.922Z,79.22
2018-09-21T06:24:29.911Z,78.91
2018-09-21T06:25:29.896Z,78.01
2018-09-21T06:26:29.900Z,77.70
2018-09-21T06:27:29.896Z,78.51
2018-09-21T06:28:29.865Z,78.31
2018-09-21T06:29:29.878Z,77.70
2018-09-21T06:30:29.847Z,77.61
2018-09-21T06:31:29.839Z,78.58
2018-09-21T06:32:29.821Z,78.47
2018-09-21T06:33:29.809Z,77.47
2018-09-21T06:34:29.789Z,75.76
2018-09-21T06:35:29.787Z,77.07
2018-09-21T06:36:29.787Z,77.07
2018-09-21T06:37:29.759Z,77.43
2018-09-21T06:38:29.748Z,77.63
2018-09-21T06:39:29.736Z,75.82
2018-09-21T06:40:29.726Z,76.43
2018-09-21T06:41:29.730Z,76.43
2018-09-21T06:42:29.720Z,76.32
2018-09-21T06:43:29.693Z,75.22
2018-09-21T06:44:29.682Z,76.12
2018-09-21T06:45:29.714Z,74.41
2018-09-21T06:46:29.674Z,75.18
2018-09-21T06:47:29.651Z,75.89
2018-09-21T06:48:29.639Z,74.08
2018-09-21T06:49:29.620Z,75.38
2018-09-21T06:50:29.618Z,74.28
2018-09-21T06:51:29.627Z,76.29
2018-09-21T06:52:29.595Z,75.79
2018-09-21T06:53:29.591Z,74.98
2018-09-21T06:54:29.573Z,74.28
2018-09-21T06:55:29.558Z,73.47
2018-09-21T06:56:29.561Z,74.15
2018-09-21T06:57:29.534Z,73.84
2018-09-21T06:58:29.523Z,75.15
2018-09-21T06:59:29.518Z,75.25
2018-09-21T07:00:29.507Z,75.45
2018-09-21T07:01:29.555Z,75.25
2018-09-21T07:02:29.527Z,75.45
2018-09-21T07:03:29.470Z,75.05
2018-09-21T07:04:29.515Z,75.15
2018-09-21T07:05:29.450Z,75.45
2018-09-21T07:06:29.452Z,74.55
2018-09-21T07:07:29.426Z,73.64
2018-09-21T07:08:29.414Z,74.35
2018-09-21T07:09:29.401Z,75.15
2018-09-21T07:10:29.391Z,73.10
2018-09-21T07:11:29.401Z,72.10
2018-09-21T07:12:29.368Z,71.00
2018-09-21T07:13:29.353Z,73.67
2018-09-21T07:14:29.362Z,72.56
2018-09-21T07:15:29.335Z,73.27
2018-09-21T07:16:29.345Z,72.17
2018-09-21T07:17:29.308Z,73.77
2018-09-21T07:18:29.297Z,72.06
2018-09-21T07:19:29.290Z,71.86
2018-09-21T07:20:29.278Z,72.06
2018-09-21T07:21:29.279Z,71.26
2018-09-21T07:22:29.256Z,72.13
2018-09-21T07:23:29.241Z,73.64
2018-09-21T07:24:29.233Z,72.43
2018-09-21T07:25:29.226Z,70.12
2018-09-21T07:26:29.227Z,69.82
2018-09-21T07:27:29.215Z,67.92
2018-09-21T07:28:29.186Z,69.22
2018-09-21T07:29:29.189Z,69.92
2018-09-21T07:30:29.166Z,68.19
2018-09-21T07:31:29.188Z,67.18
2018-09-21T07:32:29.154Z,67.58
2018-09-21T07:33:29.144Z,69.29
2018-09-21T07:34:29.117Z,68.29
2018-09-21T07:35:29.106Z,67.15
2018-09-21T07:36:29.106Z,66.52
2018-09-21T07:37:29.114Z,66.99
2018-09-21T07:38:29.077Z,64.32
2018-09-21T07:39:29.065Z,62.66
2018-09-21T07:40:29.054Z,62.43
2018-09-21T07:41:29.042Z,60.05
2018-09-21T07:42:29.031Z,59.92
2018-09-21T07:43:29.018Z,58.10
2018-09-21T07:44:29.064Z,56.75
2018-09-21T07:45:28.997Z,56.75
2018-09-21T07:46:28.987Z,56.18
2018-09-21T07:47:29.003Z,57.05
2018-09-21T07:48:28.962Z,55.26
2018-09-21T07:49:28.944Z,55.76
2018-09-21T07:50:29.011Z,56.68
2018-09-21T07:51:28.930Z,57.20
2018-09-21T07:52:28.934Z,57.00
2018-09-21T07:53:28.902Z,57.64
2018-09-21T07:54:28.994Z,58.01
2018-09-21T07:55:28.884Z,56.82
2018-09-21T07:56:28.877Z,57.71
2018-09-21T07:57:28.876Z,59.08
2018-09-21T07:58:28.850Z,57.17
2018-09-21T07:59:28.839Z,56.27
2018-09-21T08:00:28.827Z,57.93
2018-09-21T08:01:28.819Z,56.74
2018-09-21T08:02:28.817Z,56.91
2018-09-21T08:03:28.794Z,55.96
2018-09-21T08:04:28.784Z,53.80
2018-09-21T08:05:28.769Z,54.50
2018-09-21T08:06:28.763Z,56.61
2018-09-21T08:07:28.761Z,56.61
2018-09-21T08:08:28.721Z,56.54
2018-09-21T08:09:28.726Z,55.47
2018-09-21T08:10:28.719Z,56.07
2018-09-21T08:11:28.711Z,58.58
2018-09-21T08:12:28.713Z,56.32
2018-09-21T08:13:28.681Z,57.77
2018-09-21T08:14:28.670Z,59.66
2018-09-21T08:15:28.649Z,60.53
2018-09-21T08:16:28.668Z,61.66
2018-09-21T08:17:28.653Z,61.16
2018-09-21T08:18:28.633Z,60.56
2018-09-21T08:19:28.639Z,61.58
2018-09-21T08:20:28.604Z,62.38
2018-09-21T08:21:28.594Z,63.48
2018-09-21T08:22:28.588Z,63.71
2018-09-21T08:23:28.569Z,62.38
2018-09-21T08:24:28.563Z,62.61
2018-09-21T08:25:28.562Z,63.61
2018-09-21T08:26:28.604Z,64.11
2018-09-21T08:27:28.545Z,63.48
2018-09-21T08:28:28.513Z,64.18
2018-09-21T08:29:28.506Z,60.86
2018-09-21T08:30:28.490Z,59.51
2018-09-21T08:31:28.545Z,56.27
2018-09-21T08:32:28.480Z,54.65
2018-09-21T08:33:28.463Z,54.63
2018-09-21T08:34:28.450Z,53.63
2018-09-21T08:35:28.425Z,54.82
2018-09-21T08:36:28.426Z,54.35
2018-09-21T08:37:28.420Z,54.53
2018-09-21T08:38:28.400Z,55.12
2018-09-21T08:39:28.389Z,55.32
2018-09-21T08:40:28.378Z,54.43
2018-09-21T08:41:28.374Z,54.35
2018-09-21T08:42:28.381Z,53.26
2018-09-21T08:43:28.349Z,54.06
2018-09-21T08:44:28.335Z,53.06
2018-09-21T08:45:28.338Z,52.47
2018-09-21T08:46:28.303Z,51.47
2018-09-21T08:47:28.315Z,50.98
2018-09-21T08:48:28.292Z,50.18
2018-09-21T08:49:28.284Z,48.77
2018-09-21T08:50:28.308Z,48.37
2018-09-21T08:51:28.263Z,48.74
2018-09-21T08:52:28.255Z,48.13
2018-09-21T08:53:28.260Z,47.63
2018-09-21T08:54:28.227Z,47.71
2018-09-21T08:55:28.213Z,46.19
2018-09-21T08:56:28.198Z,45.90
2018-09-21T08:57:28.226Z,46.69
2018-09-21T08:58:28.180Z,46.91
2018-09-21T08:59:28.171Z,46.91
2018-09-21T09:00:28.170Z,47.88
2018-09-21T09:01:28.146Z,47.38
2018-09-21T09:02:28.146Z,47.50
2018-09-21T09:03:28.181Z,48.02
2018-09-21T09:04:28.112Z,47.73
2018-09-21T09:05:28.097Z,46.42
2018-09-21T09:06:28.089Z,47.43
2018-09-21T09:07:28.099Z,48.22
2018-09-21T09:08:28.075Z,47.71
2018-09-21T09:09:28.059Z,47.80
2018-09-21T09:10:28.040Z,46.59
2018-09-21T09:11:28.036Z,47.16
2018-09-21T09:12:28.030Z,46.47
2018-09-21T09:13:28.010Z,46.84
2018-09-21T09:14:27.999Z,46.42
2018-09-21T09:15:27.986Z,44.84
2018-09-21T09:16:27.964Z,45.31
2018-09-21T09:17:28.014Z,44.74
2018-09-21T09:18:27.954Z,45.95
2018-09-21T09:19:27.944Z,47.34
2018-09-21T09:20:27.931Z,46.77
2018-09-21T09:21:27.916Z,45.87
2018-09-21T09:22:27.920Z,46.09
2018-09-21T09:23:27.900Z,46.57
2018-09-21T09:24:27.889Z,46.00
2018-09-21T09:25:27.875Z,46.09
2018-09-21T09:26:27.930Z,45.92
2018-09-21T09:27:27.864Z,46.12
2018-09-21T09:28:27.841Z,46.31
2018-09-21T09:29:27.832Z,46.91
2018-09-21T09:30:27.820Z,47.61
2018-09-21T09:31:27.810Z,46.51
2018-09-21T09:32:27.810Z,47.80
2018-09-21T09:33:27.781Z,47.90
2018-09-21T09:34:27.774Z,47.71
2018-09-21T09:35:27.751Z,47.43
2018-09-21T09:36:27.748Z,47.43
2018-09-21T09:37:27.772Z,48.32
2018-09-21T09:38:27.726Z,48.30
2018-09-21T09:39:27.722Z,47.90
2018-09-21T09:40:27.707Z,48.42
2018-09-21T09:41:27.692Z,48.42
2018-09-21T09:42:27.683Z,48.02
2018-09-21T09:43:27.747Z,48.82
2018-09-21T09:44:27.660Z,48.42
2018-09-21T09:45:27.654Z,50.31
2018-09-21T09:46:27.656Z,51.07
2018-09-21T09:47:27.629Z,48.80
2018-09-21T09:48:27.688Z,48.30
2018-09-21T09:49:27.605Z,47.61
2018-09-21T09:50:27.595Z,48.80
2018-09-21T09:51:27.584Z,47.88
2018-09-21T09:52:27.571Z,47.68
2018-09-21T09:53:27.572Z,48.57
2018-09-21T09:54:27.559Z,47.49
2018-09-21T09:55:27.537Z,47.28
2018-09-21T09:56:27.526Z,48.38
2018-09-21T09:57:27.517Z,47.66
2018-09-21T09:58:27.518Z,47.96
2018-09-21T09:59:27.493Z,47.66
2018-09-21T10:00:27.485Z,48.08
2018-09-21T10:01:27.475Z,47.88
2018-09-21T10:02:27.459Z,47.88
2018-09-21T10:03:27.517Z,48.18
2018-09-21T10:04:27.433Z,47.28
2018-09-21T10:05:27.421Z,47.78
2018-09-21T10:06:27.417Z,47.78
2018-09-21T10:07:27.409Z,47.98
2018-09-21T10:08:27.407Z,48.65
2018-09-21T10:09:27.384Z,47.96
2018-09-21T10:10:27.485Z,47.34
2018-09-21T10:11:27.358Z,48.55
2018-09-21T10:12:27.346Z,47.74
2018-09-21T10:13:27.351Z,47.83
2018-09-21T10:14:27.328Z,47.31
2018-09-21T10:15:27.317Z,46.55
2018-09-21T10:16:27.376Z,47.61
2018-09-21T10:17:27.290Z,48.60
2018-09-21T10:18:27.295Z,47.91
2018-09-21T10:19:27.272Z,47.00
2018-09-21T10:20:27.259Z,46.40
2018-09-21T10:21:27.250Z,47.81
2018-09-21T10:22:27.234Z,47.52
2018-09-21T10:23:27.237Z,47.31
2018-09-21T10:24:27.221Z,48.11
2018-09-21T10:25:27.206Z,48.11
2018-09-21T10:26:27.189Z,47.63
2018-09-21T10:27:27.225Z,47.83
2018-09-21T10:28:27.549Z,49.22
2018-09-21T10:29:27.155Z,47.93
2018-09-21T10:30:27.144Z,47.63
2018-09-21T10:31:27.140Z,47.74
2018-09-21T10:32:27.229Z,48.33
2018-09-21T10:33:27.167Z,48.63
2018-09-21T10:34:27.158Z,49.42
2018-09-21T10:35:27.133Z,47.74
2018-09-21T10:36:27.094Z,48.82
2018-09-21T10:37:27.069Z,48.43
2018-09-21T10:38:27.066Z,47.83
2018-09-21T10:39:27.037Z,47.75
2018-09-21T10:40:27.117Z,48.75
2018-09-21T10:41:27.030Z,48.55
2018-09-21T10:42:27.024Z,48.55
2018-09-21T10:43:27.012Z,48.55
2018-09-21T10:44:26.988Z,48.25
2018-09-21T10:45:26.984Z,49.64
2018-09-21T10:46:26.970Z,49.64
2018-09-21T10:47:26.958Z,48.38
2018-09-21T10:48:26.962Z,49.64
2018-09-21T10:49:26.938Z,50.16
2018-09-21T10:50:26.923Z,48.85
2018-09-21T10:51:26.915Z,49.15
2018-09-21T10:52:26.902Z,50.23
2018-09-21T10:53:26.902Z,49.44
2018-09-21T10:54:26.880Z,48.38
2018-09-21T10:55:26.908Z,49.07
2018-09-21T10:56:26.851Z,49.46
2018-09-21T10:57:26.832Z,49.76
2018-09-21T10:58:26.888Z,49.99
2018-09-21T10:59:26.818Z,49.96
2018-09-21T11:00:26.839Z,49.96
2018-09-21T11:01:26.803Z,49.27
2018-09-21T11:02:26.793Z,49.27
2018-09-21T11:03:26.785Z,50.36
2018-09-21T11:04:26.774Z,49.86
2018-09-21T11:05:26.746Z,51.05
2018-09-21T11:06:26.743Z,49.86
2018-09-21T11:07:26.736Z,50.53
2018-09-21T11:08:26.717Z,49.84
2018-09-21T11:09:26.701Z,50.23
2018-09-21T11:10:26.698Z,50.04
2018-09-21T11:11:26.691Z,50.04
2018-09-21T11:12:26.676Z,50.53
2018-09-21T11:13:26.679Z,50.43
2018-09-21T11:14:26.657Z,49.44
2018-09-21T11:15:26.642Z,49.64
2018-09-21T11:16:26.645Z,49.64
2018-09-21T11:17:26.619Z,50.73
2018-09-21T11:18:26.623Z,49.15
2018-09-21T11:19:26.601Z,49.94
2018-09-21T11:20:26.591Z,49.81
2018-09-21T11:21:26.578Z,50.41
2018-09-21T11:22:26.563Z,50.31
2018-09-21T11:23:26.559Z,49.62
2018-09-21T11:24:26.540Z,50.71
2018-09-21T11:25:26.534Z,50.51
2018-09-21T11:26:26.523Z,49.91
2018-09-21T11:27:26.511Z,50.01
2018-09-21T11:28:26.508Z,50.11
2018-09-21T11:29:26.540Z,50.41
2018-09-21T11:30:26.477Z,50.09
2018-09-21T11:31:26.467Z,49.40
2018-09-21T11:32:26.466Z,49.59
2018-09-21T11:33:26.455Z,49.42
2018-09-21T11:34:26.432Z,49.81
2018-09-21T11:35:26.421Z,50.71
2018-09-21T11:36:26.412Z,49.81
2018-09-21T11:37:26.392Z,50.31
2018-09-21T11:38:26.403Z,50.90
2018-09-21T11:39:26.377Z,50.60
2018-09-21T11:40:26.397Z,50.81
2018-09-21T11:41:26.406Z,49.52
2018-09-21T11:42:26.340Z,50.71
2018-09-21T11:43:26.365Z,50.31
2018-09-21T11:44:26.319Z,50.43
2018-09-21T11:45:26.317Z,49.34
2018-09-21T11:46:26.297Z,49.15
2018-09-21T11:47:26.362Z,50.53
2018-09-21T11:48:26.275Z,49.54
2018-09-21T11:49:26.272Z,50.21
2018-09-21T11:50:26.253Z,49.94
2018-09-21T11:51:26.226Z,49.74
2018-09-21T11:52:26.226Z,50.34
2018-09-21T11:53:26.230Z,50.53
2018-09-21T11:54:26.219Z,49.42
2018-09-21T11:55:26.225Z,50.01
2018-09-21T11:56:26.181Z,50.01
2018-09-21T11:57:26.174Z,49.22
2018-09-21T11:58:26.190Z,44.67
2018-09-21T11:59:26.164Z,45.97
2018-09-21T12:00:26.140Z,45.78
2018-09-21T12:01:26.129Z,45.87
2018-09-21T12:02:26.114Z,45.45
2018-09-21T12:03:26.107Z,46.55
2018-09-21T12:04:26.297Z,45.85
2018-09-21T12:05:26.080Z,44.37
2018-09-21T12:06:26.060Z,44.67
2018-09-21T12:07:26.067Z,44.96
2018-09-21T12:08:26.050Z,44.27
2018-09-21T12:09:26.051Z,44.86
2018-09-21T12:10:26.128Z,44.67
2018-09-21T12:11:26.024Z,44.27
2018-09-21T12:12:26.006Z,44.78
2018-09-21T12:13:26.000Z,45.87
2018-09-21T12:14:25.995Z,45.95
2018-09-21T12:15:25.973Z,44.86
2018-09-21T12:16:25.964Z,44.86
2018-09-21T12:17:25.955Z,43.67
2018-09-21T12:18:25.944Z,44.54
2018-09-21T12:19:25.940Z,44.54
2018-09-21T12:20:25.922Z,43.16
2018-09-21T12:21:25.905Z,43.08
2018-09-21T12:22:25.899Z,43.97
2018-09-21T12:23:25.888Z,42.49
2018-09-21T12:24:25.884Z,42.96
2018-09-21T12:25:25.865Z,42.58
2018-09-21T12:26:25.851Z,43.46
2018-09-21T12:27:25.842Z,44.05
2018-09-21T12:28:25.818Z,43.35
2018-09-21T12:29:25.832Z,44.74
2018-09-21T12:30:25.834Z,44.15
2018-09-21T12:31:25.794Z,42.57
2018-09-21T12:32:25.787Z,44.35
2018-09-21T12:33:25.771Z,43.85
2018-09-21T12:34:25.771Z,43.67
2018-09-21T12:35:25.756Z,44.86
2018-09-21T12:36:25.782Z,44.46
2018-09-21T12:37:25.731Z,44.27
2018-09-21T12:38:25.720Z,43.60
2018-09-21T12:39:25.714Z,44.19
2018-09-21T12:40:25.698Z,44.98
2018-09-21T12:41:25.681Z,44.56
2018-09-21T12:42:25.683Z,42.58
2018-09-21T12:43:25.663Z,42.76
2018-09-21T12:44:25.704Z,42.66
2018-09-21T12:45:25.640Z,42.66
2018-09-21T12:46:25.661Z,43.85
2018-09-21T12:47:25.607Z,44.05
2018-09-21T12:48:26.350Z,44.27
2018-09-21T12:49:25.616Z,43.97
2018-09-21T12:50:25.660Z,44.07
2018-09-21T12:51:25.573Z,43.70
2018-09-21T12:52:25.561Z,44.09
2018-09-21T12:53:25.551Z,44.96
2018-09-21T12:54:25.551Z,43.77
2018-09-21T12:55:25.535Z,44.46
2018-09-21T12:56:25.550Z,44.07
2018-09-21T12:57:25.496Z,45.16
2018-09-21T12:58:25.670Z,44.27
2018-09-21T12:59:25.494Z,43.87
2018-09-21T13:00:25.471Z,44.27
2018-09-21T13:01:25.457Z,44.37
2018-09-21T13:02:25.477Z,44.94
2018-09-21T13:03:25.438Z,44.17
2018-09-21T13:04:25.436Z,44.94
2018-09-21T13:05:25.416Z,45.36
2018-09-21T13:06:25.522Z,44.86
2018-09-21T13:07:25.393Z,46.05
2018-09-21T13:08:25.382Z,45.26
2018-09-21T13:09:25.383Z,45.85
2018-09-21T13:10:25.359Z,44.96
2018-09-21T13:11:25.352Z,45.68
2018-09-21T13:12:25.339Z,45.78
2018-09-21T13:13:25.326Z,45.90
2018-09-21T13:14:25.415Z,45.10
2018-09-21T13:15:25.396Z,44.81
2018-09-21T13:16:25.383Z,45.70
2018-09-21T13:17:25.285Z,45.20
2018-09-21T13:18:25.289Z,45.40
2018-09-21T13:19:25.265Z,46.89
2018-09-21T13:20:25.250Z,45.23
2018-09-21T13:21:25.230Z,45.82
2018-09-21T13:22:25.228Z,45.62
2018-09-21T13:23:25.216Z,46.91
2018-09-21T13:24:25.215Z,45.92
2018-09-21T13:25:25.283Z,46.64
2018-09-21T13:26:25.184Z,45.23
2018-09-21T13:27:25.169Z,45.62
2018-09-21T13:28:25.160Z,44.43
2018-09-21T13:29:25.318Z,45.05
2018-09-21T13:30:25.139Z,45.25
2018-09-21T13:31:25.127Z,45.25
2018-09-21T13:32:25.185Z,46.16
2018-09-21T13:33:25.112Z,45.86
2018-09-21T13:34:25.216Z,46.95
2018-09-21T13:35:25.082Z,46.66
2018-09-21T13:36:25.058Z,47.95
2018-09-21T13:37:25.164Z,46.36
2018-09-21T13:38:25.158Z,46.78
2018-09-21T13:39:25.045Z,47.67
2018-09-21T13:40:25.028Z,46.98
2018-09-21T13:41:25.010Z,46.28
2018-09-21T13:42:25.002Z,46.78
2018-09-21T13:43:24.991Z,47.20
2018-09-21T13:44:25.013Z,46.70
2018-09-21T13:45:24.977Z,47.30
2018-09-21T13:46:24.950Z,47.60
2018-09-21T13:47:24.946Z,47.50
2018-09-21T13:48:24.936Z,48.10
2018-09-21T13:49:24.920Z,47.70
2018-09-21T13:50:24.925Z,47.72
2018-09-21T13:51:24.885Z,48.81
2018-09-21T13:52:24.890Z,49.11
2018-09-21T13:53:24.879Z,47.72
2018-09-21T13:54:24.864Z,47.99
2018-09-21T13:55:24.864Z,47.60
2018-09-21T13:56:24.845Z,47.60
2018-09-21T13:57:24.885Z,47.60
2018-09-21T13:58:24.819Z,49.08
2018-09-21T13:59:24.891Z,48.59
2018-09-21T14:00:24.810Z,47.60
2018-09-21T14:01:24.785Z,47.99
2018-09-21T14:02:24.779Z,47.50
2018-09-21T14:03:24.766Z,47.30
2018-09-21T14:04:24.909Z,48.32
2018-09-21T14:05:24.809Z,47.72
2018-09-21T14:06:24.737Z,47.13
2018-09-21T14:07:24.718Z,46.72
2018-09-21T14:08:24.716Z,47.02
2018-09-21T14:09:24.706Z,47.02
2018-09-21T14:10:24.704Z,47.82
2018-09-21T14:11:24.669Z,45.03
2018-09-21T14:12:24.662Z,45.73
2018-09-21T14:13:24.659Z,46.15
2018-09-21T14:14:24.646Z,46.92
2018-09-21T14:15:24.649Z,45.83
2018-09-21T14:16:24.624Z,46.92
2018-09-21T14:17:24.615Z,45.53
2018-09-21T14:18:24.598Z,45.83
2018-09-21T14:19:24.597Z,46.15
2018-09-21T14:20:24.588Z,46.03
2018-09-21T14:21:24.598Z,47.05
2018-09-21T14:22:24.558Z,46.75
2018-09-21T14:23:24.547Z,47.74
2018-09-21T14:24:24.535Z,49.55
2018-09-21T14:25:24.533Z,48.76
2018-09-21T14:26:24.513Z,48.49
2018-09-21T14:27:24.501Z,49.01
2018-09-21T14:28:24.491Z,51.00
2018-09-21T14:29:24.480Z,52.42
2018-09-21T14:30:24.481Z,53.11
2018-09-21T14:31:24.457Z,53.52
2018-09-21T14:32:24.443Z,54.34
2018-09-21T14:33:24.435Z,60.15
2018-09-21T14:34:24.423Z,61.87
2018-09-21T14:35:24.446Z,60.50
2018-09-21T14:36:24.416Z,61.63
2018-09-21T14:37:24.390Z,63.66
2018-09-21T14:38:24.382Z,66.59
2018-09-21T14:39:24.367Z,69.93
2018-09-21T14:40:24.351Z,67.69
2018-09-21T14:41:24.341Z,76.98
2018-09-21T14:42:24.359Z,73.90
2018-09-21T14:43:24.326Z,73.54
2018-09-21T14:44:24.429Z,77.76
2018-09-21T14:45:24.384Z,78.80
2018-09-21T14:46:24.320Z,80.41
2018-09-21T14:47:24.283Z,83.26
2018-09-21T14:48:24.266Z,83.40
2018-09-21T14:49:24.263Z,85.62
2018-09-21T14:50:24.252Z,81.79
2018-09-21T14:51:24.218Z,82.10
2018-09-21T14:52:24.325Z,85.08
2018-09-21T14:53:24.210Z,86.99
2018-09-21T14:54:24.203Z,86.68
2018-09-21T14:55:24.201Z,85.28
2018-09-21T14:56:24.183Z,83.40
2018-09-21T14:57:24.169Z,83.51
2018-09-21T14:58:24.158Z,85.62
2018-09-21T14:59:24.143Z,87.02
2018-09-21T15:00:24.145Z,87.83
2018-09-21T15:01:24.113Z,86.68
2018-09-21T15:02:24.129Z,86.38
2018-09-21T15:03:24.092Z,86.68
2018-09-21T15:04:24.183Z,86.08
2018-09-21T15:05:24.087Z,85.88
2018-09-21T15:06:24.067Z,87.59
2018-09-21T15:07:24.056Z,87.49
2018-09-21T15:08:24.188Z,87.49
2018-09-21T15:09:24.100Z,85.78
2018-09-21T15:10:25.651Z,88.25
2018-09-21T15:11:24.108Z,87.69
2018-09-21T15:12:24.069Z,87.65
2018-09-21T15:13:24.072Z,87.15
2018-09-21T15:14:23.978Z,88.05
2018-09-21T15:15:23.978Z,85.10
2018-09-21T15:16:23.968Z,86.50
2018-09-21T15:17:24.094Z,85.64
2018-09-21T15:18:23.933Z,86.40
2018-09-21T15:19:23.918Z,86.30
2018-09-21T15:20:24.066Z,85.80
2018-09-21T15:21:24.005Z,85.90
2018-09-21T15:22:23.888Z,86.10
2018-09-21T15:23:23.872Z,86.30
2018-09-21T15:24:23.862Z,86.04
2018-09-21T15:25:23.867Z,86.65
2018-09-21T15:26:23.843Z,87.55
2018-09-21T15:27:23.831Z,88.15
2018-09-21T15:28:23.812Z,88.05
2018-09-21T15:29:23.808Z,86.18
2018-09-21T15:30:23.819Z,84.51
2018-09-21T15:31:23.779Z,79.32
2018-09-21T15:32:23.810Z,80.36
2018-09-21T15:33:23.768Z,80.57
2018-09-21T15:34:23.857Z,82.21
2018-09-21T15:35:23.749Z,81.75
2018-09-21T15:36:23.758Z,83.16
2018-09-21T15:37:23.720Z,83.76
2018-09-21T15:38:23.764Z,83.60
2018-09-21T15:39:23.697Z,83.20
2018-09-21T15:40:23.697Z,84.35
2018-09-21T15:41:23.673Z,85.46
2018-09-21T15:42:23.704Z,84.19
2018-09-21T15:43:23.865Z,84.19
2018-09-21T15:44:23.644Z,84.49
2018-09-21T15:45:23.644Z,84.39
2018-09-21T15:46:23.622Z,85.50
2018-09-21T15:47:23.611Z,82.10
2018-09-21T15:48:23.610Z,82.31
2018-09-21T15:49:23.595Z,80.90
2018-09-21T15:50:23.781Z,81.60
2018-09-21T15:51:23.549Z,82.65
2018-09-21T15:52:23.550Z,83.92
2018-09-21T15:53:23.544Z,81.23
2018-09-21T15:54:23.528Z,83.86
2018-09-21T15:55:23.517Z,82.04
2018-09-21T15:56:23.518Z,82.65
2018-09-21T15:57:23.497Z,80.43
2018-09-21T15:58:23.487Z,82.14
2018-09-21T15:59:23.474Z,82.14
2018-09-21T16:00:23.460Z,80.53
2018-09-21T16:01:23.460Z,82.24
2018-09-21T16:02:23.442Z,82.14
2018-09-21T16:03:23.427Z,79.52
2018-09-21T16:04:23.415Z,78.00
2018-09-21T16:05:23.411Z,79.25
2018-09-21T16:06:23.405Z,80.16
2018-09-21T16:07:23.381Z,78.85
2018-09-21T16:08:23.420Z,80.00
2018-09-21T16:09:23.366Z,79.59
2018-09-21T16:10:23.347Z,80.71
2018-09-21T16:11:23.370Z,83.03
2018-09-21T16:12:23.328Z,83.94
2018-09-21T16:13:23.340Z,82.73
2018-09-21T16:14:23.401Z,78.75
2018-09-21T16:15:23.315Z,83.11
2018-09-21T16:16:23.296Z,79.67
2018-09-21T16:17:23.273Z,80.62
2018-09-21T16:18:23.262Z,80.62
2018-09-21T16:19:23.251Z,80.65
2018-09-21T16:20:23.311Z,83.94
2018-09-21T16:21:23.240Z,81.81
2018-09-21T16:22:23.297Z,86.27
2018-09-21T16:23:23.205Z,86.37
2018-09-21T16:24:23.277Z,87.48
2018-09-21T16:25:23.180Z,87.59
2018-09-21T16:26:23.279Z,86.88
2018-09-21T16:27:23.157Z,86.88
2018-09-21T16:28:23.153Z,86.57
2018-09-21T16:29:23.138Z,86.88
2018-09-21T16:30:23.131Z,86.16
2018-09-21T16:31:23.186Z,84.30
2018-09-21T16:32:23.108Z,85.05
2018-09-21T16:33:23.217Z,85.76
2018-09-21T16:34:23.088Z,82.11
2018-09-21T16:35:23.073Z,84.04
2018-09-21T16:36:23.169Z,84.95
2018-09-21T16:37:23.050Z,85.36
2018-09-21T16:38:23.039Z,85.05
2018-09-21T16:39:23.029Z,84.14
2018-09-21T16:40:23.020Z,84.95
2018-09-21T16:41:23.026Z,85.66
2018-09-21T16:42:22.991Z,86.31
2018-09-21T16:43:22.980Z,84.58
2018-09-21T16:44:22.973Z,86.10
2018-09-21T16:45:23.032Z,86.82
2018-09-21T16:46:22.958Z,87.28
2018-09-21T16:47:22.931Z,85.66
2018-09-21T16:48:22.942Z,85.66
2018-09-21T16:49:22.912Z,86.37
2018-09-21T16:50:22.901Z,85.96
2018-09-21T16:51:22.903Z,86.07
2018-09-21T16:52:22.932Z,86.16